sensor_id;sensor_type;location;lat;lon;timestamp;P1;durP1;ratioP1;P2;durP2;ratioP2
29378;SDS011;16362;47.202;15.258;2022-11-15T00:00:55;28.55;;;17.23;;
29378;SDS011;16362;47.202;15.258;2022-11-15T00:03:26;27.05;;;18.67;;
29378;SDS011;16362;47.202;15.258;2022-11-15T00:05:54;41.08;;;20.15;;
29378;SDS011;16362;47.202;15.258;2022-11-15T00:08:21;34.22;;;20.25;;
29378;SDS011;16362;47.202;15.258;2022-11-15T00:10:54;28.88;;;18.00;;
29378;SDS011;16362;47.202;15.258;2022-11-15T00:13:22;30.02;;;18.60;;
29378;SDS011;16362;47.202;15.258;2022-11-15T00:15:49;28.58;;;18.42;;
29378;SDS011;16362;47.202;15.258;2022-11-15T00:18:16;33.60;;;19.23;;
29378;SDS011;16362;47.202;15.258;2022-11-15T00:20:43;27.25;;;17.40;;
29378;SDS011;16362;47.202;15.258;2022-11-15T00:23:10;30.08;;;19.10;;
29378;SDS011;16362;47.202;15.258;2022-11-15T00:25:37;25.73;;;17.60;;
29378;SDS011;16362;47.202;15.258;2022-11-15T00:28:04;29.85;;;19.42;;
29378;SDS011;16362;47.202;15.258;2022-11-15T00:30:30;32.00;;;19.17;;
29378;SDS011;16362;47.202;15.258;2022-11-15T00:33:01;36.05;;;19.45;;
29378;SDS011;16362;47.202;15.258;2022-11-15T00:35:31;27.73;;;18.08;;
29378;SDS011;16362;47.202;15.258;2022-11-15T00:37:59;30.05;;;19.02;;
29378;SDS011;16362;47.202;15.258;2022-11-15T00:40:27;26.83;;;18.50;;
29378;SDS011;16362;47.202;15.258;2022-11-15T00:42:54;27.13;;;18.73;;
29378;SDS011;16362;47.202;15.258;2022-11-15T00:45:21;31.95;;;18.48;;
29378;SDS011;16362;47.202;15.258;2022-11-15T00:47:48;29.80;;;18.73;;
29378;SDS011;16362;47.202;15.258;2022-11-15T00:50:15;33.55;;;20.08;;
29378;SDS011;16362;47.202;15.258;2022-11-15T00:52:42;28.67;;;18.48;;
29378;SDS011;16362;47.202;15.258;2022-11-15T00:55:15;30.40;;;18.67;;
29378;SDS011;16362;47.202;15.258;2022-11-15T00:57:43;26.40;;;17.90;;
29378;SDS011;16362;47.202;15.258;2022-11-15T01:00:10;33.03;;;17.45;;
29378;SDS011;16362;47.202;15.258;2022-11-15T01:02:38;26.45;;;17.65;;
29378;SDS011;16362;47.202;15.258;2022-11-15T01:05:05;31.05;;;19.30;;
29378;SDS011;16362;47.202;15.258;2022-11-15T01:07:32;26.65;;;18.08;;
29378;SDS011;16362;47.202;15.258;2022-11-15T01:09:59;28.23;;;17.45;;
29378;SDS011;16362;47.202;15.258;2022-11-15T01:12:26;29.33;;;18.65;;
29378;SDS011;16362;47.202;15.258;2022-11-15T01:14:53;29.92;;;18.63;;
29378;SDS011;16362;47.202;15.258;2022-11-15T01:17:20;28.23;;;17.60;;
29378;SDS011;16362;47.202;15.258;2022-11-15T01:19:47;26.88;;;17.23;;
29378;SDS011;16362;47.202;15.258;2022-11-15T01:22:13;31.65;;;19.35;;
29378;SDS011;16362;47.202;15.258;2022-11-15T01:24:40;29.75;;;18.60;;
29378;SDS011;16362;47.202;15.258;2022-11-15T01:27:07;30.60;;;18.80;;
29378;SDS011;16362;47.202;15.258;2022-11-15T01:29:34;25.50;;;18.48;;
29378;SDS011;16362;47.202;15.258;2022-11-15T01:32:01;23.33;;;17.20;;
29378;SDS011;16362;47.202;15.258;2022-11-15T01:34:27;27.05;;;16.88;;
29378;SDS011;16362;47.202;15.258;2022-11-15T01:36:54;24.65;;;16.45;;
29378;SDS011;16362;47.202;15.258;2022-11-15T01:39:21;24.65;;;17.30;;
29378;SDS011;16362;47.202;15.258;2022-11-15T01:41:47;23.75;;;16.42;;
29378;SDS011;16362;47.202;15.258;2022-11-15T01:49:29;28.15;;;16.27;;
29378;SDS011;16362;47.202;15.258;2022-11-15T01:52:00;23.38;;;16.17;;
29378;SDS011;16362;47.202;15.258;2022-11-15T01:54:29;24.08;;;17.10;;
29378;SDS011;16362;47.202;15.258;2022-11-15T01:57:01;25.08;;;16.73;;
29378;SDS011;16362;47.202;15.258;2022-11-15T01:59:35;23.42;;;16.35;;
29378;SDS011;16362;47.202;15.258;2022-11-15T02:02:08;26.55;;;17.65;;
29378;SDS011;16362;47.202;15.258;2022-11-15T02:04:36;21.90;;;16.05;;
29378;SDS011;16362;47.202;15.258;2022-11-15T02:07:07;29.45;;;16.17;;
29378;SDS011;16362;47.202;15.258;2022-11-15T02:09:37;23.88;;;16.55;;
29378;SDS011;16362;47.202;15.258;2022-11-15T02:12:05;25.10;;;16.38;;
29378;SDS011;16362;47.202;15.258;2022-11-15T02:14:33;26.55;;;16.90;;
29378;SDS011;16362;47.202;15.258;2022-11-15T02:17:08;24.58;;;17.30;;
29378;SDS011;16362;47.202;15.258;2022-11-15T02:31:44;21.65;;;15.10;;
29378;SDS011;16362;47.202;15.258;2022-11-15T02:34:20;23.02;;;15.88;;
29378;SDS011;16362;47.202;15.258;2022-11-15T02:37:00;24.05;;;14.60;;
29378;SDS011;16362;47.202;15.258;2022-11-15T02:39:41;25.27;;;16.00;;
29378;SDS011;16362;47.202;15.258;2022-11-15T02:42:19;24.77;;;15.23;;
29378;SDS011;16362;47.202;15.258;2022-11-15T02:45:09;22.83;;;15.52;;
29378;SDS011;16362;47.202;15.258;2022-11-15T02:47:44;22.90;;;15.35;;
29378;SDS011;16362;47.202;15.258;2022-11-15T02:50:16;19.63;;;15.40;;
29378;SDS011;16362;47.202;15.258;2022-11-15T02:52:45;22.27;;;15.32;;
29378;SDS011;16362;47.202;15.258;2022-11-15T03:01:01;19.83;;;15.27;;
29378;SDS011;16362;47.202;15.258;2022-11-15T03:03:40;25.02;;;15.65;;
29378;SDS011;16362;47.202;15.258;2022-11-15T03:06:19;24.20;;;15.63;;
29378;SDS011;16362;47.202;15.258;2022-11-15T03:09:12;24.23;;;15.07;;
29378;SDS011;16362;47.202;15.258;2022-11-15T03:11:54;27.00;;;16.25;;
29378;SDS011;16362;47.202;15.258;2022-11-15T03:14:34;18.92;;;14.80;;
29378;SDS011;16362;47.202;15.258;2022-11-15T03:19:56;22.60;;;15.13;;
29378;SDS011;16362;47.202;15.258;2022-11-15T03:22:27;22.13;;;14.88;;
29378;SDS011;16362;47.202;15.258;2022-11-15T03:24:57;20.05;;;14.50;;
29378;SDS011;16362;47.202;15.258;2022-11-15T03:27:29;25.15;;;15.63;;
29378;SDS011;16362;47.202;15.258;2022-11-15T03:30:03;20.70;;;14.52;;
29378;SDS011;16362;47.202;15.258;2022-11-15T03:32:54;17.60;;;13.95;;
29378;SDS011;16362;47.202;15.258;2022-11-15T03:35:22;21.05;;;14.35;;
29378;SDS011;16362;47.202;15.258;2022-11-15T03:38:15;19.25;;;15.07;;
29378;SDS011;16362;47.202;15.258;2022-11-15T03:40:45;20.45;;;14.02;;
29378;SDS011;16362;47.202;15.258;2022-11-15T03:43:32;25.45;;;15.50;;
29378;SDS011;16362;47.202;15.258;2022-11-15T03:46:17;19.73;;;14.60;;
29378;SDS011;16362;47.202;15.258;2022-11-15T03:48:52;21.10;;;14.35;;
29378;SDS011;16362;47.202;15.258;2022-11-15T03:51:23;21.13;;;13.85;;
29378;SDS011;16362;47.202;15.258;2022-11-15T03:53:50;24.15;;;14.80;;
29378;SDS011;16362;47.202;15.258;2022-11-15T03:56:17;26.20;;;15.00;;
29378;SDS011;16362;47.202;15.258;2022-11-15T03:58:44;20.88;;;13.77;;
29378;SDS011;16362;47.202;15.258;2022-11-15T04:01:11;22.65;;;14.15;;
29378;SDS011;16362;47.202;15.258;2022-11-15T04:03:37;19.52;;;13.13;;
29378;SDS011;16362;47.202;15.258;2022-11-15T04:06:04;21.80;;;13.88;;
29378;SDS011;16362;47.202;15.258;2022-11-15T04:08:31;27.33;;;13.98;;
29378;SDS011;16362;47.202;15.258;2022-11-15T04:10:57;20.48;;;14.18;;
29378;SDS011;16362;47.202;15.258;2022-11-15T04:13:27;17.23;;;13.60;;
29378;SDS011;16362;47.202;15.258;2022-11-15T04:15:54;18.92;;;13.65;;
29378;SDS011;16362;47.202;15.258;2022-11-15T04:18:21;16.48;;;12.50;;
29378;SDS011;16362;47.202;15.258;2022-11-15T04:20:48;18.67;;;13.70;;
29378;SDS011;16362;47.202;15.258;2022-11-15T04:23:33;22.48;;;13.52;;
29378;SDS011;16362;47.202;15.258;2022-11-15T04:26:32;20.73;;;13.40;;
29378;SDS011;16362;47.202;15.258;2022-11-15T04:28:58;18.30;;;13.18;;
29378;SDS011;16362;47.202;15.258;2022-11-15T04:32:04;13.20;;;9.30;;
29378;SDS011;16362;47.202;15.258;2022-11-15T04:34:32;17.67;;;13.40;;
29378;SDS011;16362;47.202;15.258;2022-11-15T04:36:59;18.42;;;13.00;;
29378;SDS011;16362;47.202;15.258;2022-11-15T04:39:41;21.27;;;12.88;;
29378;SDS011;16362;47.202;15.258;2022-11-15T04:42:09;20.75;;;13.98;;
29378;SDS011;16362;47.202;15.258;2022-11-15T04:44:36;20.25;;;14.15;;
29378;SDS011;16362;47.202;15.258;2022-11-15T04:47:03;20.92;;;13.48;;
29378;SDS011;16362;47.202;15.258;2022-11-15T04:49:30;20.55;;;13.40;;
29378;SDS011;16362;47.202;15.258;2022-11-15T04:51:57;18.67;;;13.15;;
29378;SDS011;16362;47.202;15.258;2022-11-15T04:54:24;19.83;;;13.00;;
29378;SDS011;16362;47.202;15.258;2022-11-15T04:56:50;21.17;;;13.75;;
29378;SDS011;16362;47.202;15.258;2022-11-15T04:59:17;19.98;;;14.10;;
29378;SDS011;16362;47.202;15.258;2022-11-15T05:01:44;19.77;;;13.77;;
29378;SDS011;16362;47.202;15.258;2022-11-15T05:04:10;25.88;;;14.05;;
29378;SDS011;16362;47.202;15.258;2022-11-15T05:06:47;20.00;;;13.35;;
29378;SDS011;16362;47.202;15.258;2022-11-15T05:09:16;26.10;;;14.48;;
29378;SDS011;16362;47.202;15.258;2022-11-15T05:11:43;21.65;;;14.13;;
29378;SDS011;16362;47.202;15.258;2022-11-15T05:14:10;26.75;;;13.07;;
29378;SDS011;16362;47.202;15.258;2022-11-15T05:16:37;22.77;;;14.63;;
29378;SDS011;16362;47.202;15.258;2022-11-15T05:19:04;24.92;;;14.98;;
29378;SDS011;16362;47.202;15.258;2022-11-15T05:21:31;20.48;;;14.57;;
29378;SDS011;16362;47.202;15.258;2022-11-15T05:23:58;17.10;;;12.45;;
29378;SDS011;16362;47.202;15.258;2022-11-15T05:26:26;18.05;;;13.23;;
29378;SDS011;16362;47.202;15.258;2022-11-15T05:28:53;23.98;;;13.00;;
29378;SDS011;16362;47.202;15.258;2022-11-15T05:31:21;27.25;;;14.00;;
29378;SDS011;16362;47.202;15.258;2022-11-15T05:33:49;19.45;;;13.38;;
29378;SDS011;16362;47.202;15.258;2022-11-15T05:39:02;21.52;;;13.63;;
29378;SDS011;16362;47.202;15.258;2022-11-15T05:41:35;19.98;;;13.00;;
29378;SDS011;16362;47.202;15.258;2022-11-15T05:44:05;18.58;;;13.35;;
29378;SDS011;16362;47.202;15.258;2022-11-15T05:46:35;17.92;;;12.55;;
29378;SDS011;16362;47.202;15.258;2022-11-15T05:49:06;20.45;;;13.70;;
29378;SDS011;16362;47.202;15.258;2022-11-15T05:51:35;20.70;;;13.18;;
29378;SDS011;16362;47.202;15.258;2022-11-15T05:54:02;19.00;;;12.07;;
29378;SDS011;16362;47.202;15.258;2022-11-15T05:56:29;20.42;;;12.73;;
29378;SDS011;16362;47.202;15.258;2022-11-15T05:58:56;13.80;;;12.02;;
29378;SDS011;16362;47.202;15.258;2022-11-15T06:01:25;17.55;;;12.23;;
29378;SDS011;16362;47.202;15.258;2022-11-15T06:03:53;18.92;;;11.30;;
29378;SDS011;16362;47.202;15.258;2022-11-15T06:06:20;16.27;;;12.80;;
29378;SDS011;16362;47.202;15.258;2022-11-15T06:08:46;20.13;;;12.77;;
29378;SDS011;16362;47.202;15.258;2022-11-15T06:11:14;13.93;;;11.45;;
29378;SDS011;16362;47.202;15.258;2022-11-15T06:13:41;13.88;;;11.05;;
29378;SDS011;16362;47.202;15.258;2022-11-15T06:16:07;13.80;;;11.18;;
29378;SDS011;16362;47.202;15.258;2022-11-15T06:18:34;13.13;;;10.85;;
29378;SDS011;16362;47.202;15.258;2022-11-15T06:21:01;14.32;;;11.95;;
29378;SDS011;16362;47.202;15.258;2022-11-15T06:23:28;16.15;;;11.63;;
29378;SDS011;16362;47.202;15.258;2022-11-15T06:25:59;14.63;;;11.13;;
29378;SDS011;16362;47.202;15.258;2022-11-15T06:28:28;14.63;;;11.30;;
29378;SDS011;16362;47.202;15.258;2022-11-15T06:30:55;14.10;;;11.95;;
29378;SDS011;16362;47.202;15.258;2022-11-15T06:33:23;12.73;;;10.95;;
29378;SDS011;16362;47.202;15.258;2022-11-15T06:35:49;16.65;;;12.00;;
29378;SDS011;16362;47.202;15.258;2022-11-15T06:38:16;22.50;;;13.23;;
29378;SDS011;16362;47.202;15.258;2022-11-15T06:40:43;16.70;;;13.05;;
29378;SDS011;16362;47.202;15.258;2022-11-15T06:43:09;14.18;;;12.65;;
29378;SDS011;16362;47.202;15.258;2022-11-15T06:45:36;22.00;;;12.52;;
29378;SDS011;16362;47.202;15.258;2022-11-15T06:48:03;15.55;;;11.70;;
29378;SDS011;16362;47.202;15.258;2022-11-15T06:50:30;16.25;;;11.65;;
29378;SDS011;16362;47.202;15.258;2022-11-15T06:53:00;15.85;;;12.60;;
29378;SDS011;16362;47.202;15.258;2022-11-15T06:55:28;19.30;;;13.23;;
29378;SDS011;16362;47.202;15.258;2022-11-15T06:57:54;17.33;;;12.45;;
29378;SDS011;16362;47.202;15.258;2022-11-15T07:00:21;20.60;;;12.73;;
29378;SDS011;16362;47.202;15.258;2022-11-15T07:02:48;17.20;;;12.85;;
29378;SDS011;16362;47.202;15.258;2022-11-15T07:05:15;16.23;;;12.65;;
29378;SDS011;16362;47.202;15.258;2022-11-15T07:07:42;19.85;;;13.88;;
29378;SDS011;16362;47.202;15.258;2022-11-15T07:10:09;22.10;;;13.52;;
29378;SDS011;16362;47.202;15.258;2022-11-15T07:12:36;20.27;;;14.02;;
29378;SDS011;16362;47.202;15.258;2022-11-15T07:15:03;16.25;;;13.27;;
29378;SDS011;16362;47.202;15.258;2022-11-15T07:17:29;19.25;;;13.48;;
29378;SDS011;16362;47.202;15.258;2022-11-15T07:19:56;18.95;;;13.95;;
29378;SDS011;16362;47.202;15.258;2022-11-15T07:22:23;17.45;;;12.13;;
29378;SDS011;16362;47.202;15.258;2022-11-15T07:24:49;23.58;;;14.98;;
29378;SDS011;16362;47.202;15.258;2022-11-15T07:27:16;20.65;;;14.65;;
29378;SDS011;16362;47.202;15.258;2022-11-15T07:29:43;28.02;;;15.57;;
29378;SDS011;16362;47.202;15.258;2022-11-15T07:32:10;23.77;;;15.68;;
29378;SDS011;16362;47.202;15.258;2022-11-15T07:34:37;24.70;;;15.20;;
29378;SDS011;16362;47.202;15.258;2022-11-15T07:37:04;26.85;;;17.52;;
29378;SDS011;16362;47.202;15.258;2022-11-15T07:39:30;35.28;;;20.60;;
29378;SDS011;16362;47.202;15.258;2022-11-15T07:41:57;35.30;;;19.20;;
29378;SDS011;16362;47.202;15.258;2022-11-15T07:44:42;34.35;;;17.40;;
29378;SDS011;16362;47.202;15.258;2022-11-15T07:47:09;30.63;;;18.00;;
29378;SDS011;16362;47.202;15.258;2022-11-15T07:49:35;26.58;;;17.27;;
29378;SDS011;16362;47.202;15.258;2022-11-15T07:52:02;38.30;;;19.35;;
29378;SDS011;16362;47.202;15.258;2022-11-15T07:54:29;41.80;;;24.00;;
29378;SDS011;16362;47.202;15.258;2022-11-15T07:56:55;45.33;;;24.98;;
29378;SDS011;16362;47.202;15.258;2022-11-15T07:59:26;37.80;;;21.65;;
29378;SDS011;16362;47.202;15.258;2022-11-15T08:01:52;37.88;;;20.98;;
29378;SDS011;16362;47.202;15.258;2022-11-15T08:04:19;45.10;;;23.90;;
29378;SDS011;16362;47.202;15.258;2022-11-15T08:06:46;51.38;;;24.77;;
29378;SDS011;16362;47.202;15.258;2022-11-15T08:09:13;47.15;;;24.98;;
29378;SDS011;16362;47.202;15.258;2022-11-15T08:11:39;52.78;;;25.58;;
29378;SDS011;16362;47.202;15.258;2022-11-15T08:14:06;46.78;;;24.30;;
29378;SDS011;16362;47.202;15.258;2022-11-15T08:16:32;41.00;;;22.73;;
29378;SDS011;16362;47.202;15.258;2022-11-15T08:18:59;36.08;;;21.35;;
29378;SDS011;16362;47.202;15.258;2022-11-15T08:21:26;38.22;;;22.20;;
29378;SDS011;16362;47.202;15.258;2022-11-15T08:23:53;35.78;;;21.60;;
29378;SDS011;16362;47.202;15.258;2022-11-15T08:26:19;34.47;;;20.98;;
29378;SDS011;16362;47.202;15.258;2022-11-15T08:28:46;37.42;;;20.60;;
29378;SDS011;16362;47.202;15.258;2022-11-15T08:31:14;30.90;;;19.25;;
29378;SDS011;16362;47.202;15.258;2022-11-15T08:33:43;28.92;;;18.38;;
29378;SDS011;16362;47.202;15.258;2022-11-15T08:36:14;28.63;;;18.25;;
29378;SDS011;16362;47.202;15.258;2022-11-15T08:38:42;27.70;;;18.33;;
29378;SDS011;16362;47.202;15.258;2022-11-15T08:41:10;29.45;;;17.65;;
29378;SDS011;16362;47.202;15.258;2022-11-15T08:43:42;26.75;;;17.65;;
29378;SDS011;16362;47.202;15.258;2022-11-15T08:46:10;26.25;;;17.38;;
29378;SDS011;16362;47.202;15.258;2022-11-15T08:48:39;28.13;;;18.45;;
29378;SDS011;16362;47.202;15.258;2022-11-15T08:51:06;29.67;;;18.35;;
29378;SDS011;16362;47.202;15.258;2022-11-15T08:53:33;25.92;;;18.05;;
29378;SDS011;16362;47.202;15.258;2022-11-15T08:56:00;26.35;;;17.38;;
29378;SDS011;16362;47.202;15.258;2022-11-15T08:58:27;29.88;;;17.77;;
29378;SDS011;16362;47.202;15.258;2022-11-15T09:00:55;28.25;;;17.38;;
29378;SDS011;16362;47.202;15.258;2022-11-15T09:03:22;24.83;;;17.48;;
29378;SDS011;16362;47.202;15.258;2022-11-15T09:05:48;31.67;;;19.00;;
29378;SDS011;16362;47.202;15.258;2022-11-15T09:08:19;36.30;;;21.88;;
29378;SDS011;16362;47.202;15.258;2022-11-15T09:11:07;43.97;;;22.20;;
29378;SDS011;16362;47.202;15.258;2022-11-15T09:13:35;40.60;;;21.75;;
29378;SDS011;16362;47.202;15.258;2022-11-15T09:16:03;40.55;;;22.15;;
29378;SDS011;16362;47.202;15.258;2022-11-15T09:18:30;33.90;;;21.58;;
29378;SDS011;16362;47.202;15.258;2022-11-15T09:20:59;35.42;;;22.40;;
29378;SDS011;16362;47.202;15.258;2022-11-15T09:23:26;46.80;;;24.92;;
29378;SDS011;16362;47.202;15.258;2022-11-15T09:25:57;33.58;;;20.85;;
29378;SDS011;16362;47.202;15.258;2022-11-15T09:28:29;37.78;;;22.15;;
29378;SDS011;16362;47.202;15.258;2022-11-15T09:31:00;37.30;;;22.08;;
29378;SDS011;16362;47.202;15.258;2022-11-15T09:33:28;32.85;;;20.70;;
29378;SDS011;16362;47.202;15.258;2022-11-15T09:36:06;30.45;;;19.88;;
29378;SDS011;16362;47.202;15.258;2022-11-15T09:38:34;32.55;;;20.33;;
29378;SDS011;16362;47.202;15.258;2022-11-15T09:43:54;30.05;;;19.25;;
29378;SDS011;16362;47.202;15.258;2022-11-15T09:49:21;41.08;;;20.70;;
29378;SDS011;16362;47.202;15.258;2022-11-15T09:51:49;41.97;;;22.50;;
29378;SDS011;16362;47.202;15.258;2022-11-15T09:54:35;37.13;;;20.10;;
29378;SDS011;16362;47.202;15.258;2022-11-15T09:57:24;35.75;;;20.38;;
29378;SDS011;16362;47.202;15.258;2022-11-15T10:03:03;29.98;;;19.35;;
29378;SDS011;16362;47.202;15.258;2022-11-15T10:05:43;25.92;;;17.58;;
29378;SDS011;16362;47.202;15.258;2022-11-15T10:10:58;28.83;;;17.65;;
29378;SDS011;16362;47.202;15.258;2022-11-15T10:13:48;28.27;;;19.02;;
29378;SDS011;16362;47.202;15.258;2022-11-15T10:19:20;31.85;;;17.98;;
29378;SDS011;16362;47.202;15.258;2022-11-15T10:24:34;31.50;;;19.17;;
29378;SDS011;16362;47.202;15.258;2022-11-15T10:27:09;37.42;;;18.02;;
29378;SDS011;16362;47.202;15.258;2022-11-15T10:29:42;28.00;;;17.77;;
29378;SDS011;16362;47.202;15.258;2022-11-15T10:32:11;29.08;;;17.58;;
29378;SDS011;16362;47.202;15.258;2022-11-15T10:34:39;31.08;;;17.98;;
29378;SDS011;16362;47.202;15.258;2022-11-15T10:37:05;27.38;;;18.35;;
29378;SDS011;16362;47.202;15.258;2022-11-15T10:39:32;26.98;;;16.77;;
29378;SDS011;16362;47.202;15.258;2022-11-15T10:42:25;33.15;;;18.83;;
29378;SDS011;16362;47.202;15.258;2022-11-15T10:44:53;29.27;;;18.75;;
29378;SDS011;16362;47.202;15.258;2022-11-15T10:47:25;27.17;;;18.00;;
29378;SDS011;16362;47.202;15.258;2022-11-15T10:50:07;27.90;;;18.30;;
29378;SDS011;16362;47.202;15.258;2022-11-15T10:52:52;30.08;;;19.27;;
29378;SDS011;16362;47.202;15.258;2022-11-15T10:55:23;31.17;;;18.45;;
29378;SDS011;16362;47.202;15.258;2022-11-15T10:57:54;28.02;;;17.40;;
29378;SDS011;16362;47.202;15.258;2022-11-15T11:00:34;26.77;;;16.20;;
29378;SDS011;16362;47.202;15.258;2022-11-15T11:03:24;21.67;;;16.08;;
29378;SDS011;16362;47.202;15.258;2022-11-15T11:06:11;23.08;;;15.73;;
29378;SDS011;16362;47.202;15.258;2022-11-15T11:08:47;27.90;;;15.70;;
29378;SDS011;16362;47.202;15.258;2022-11-15T11:11:24;25.13;;;15.50;;
29378;SDS011;16362;47.202;15.258;2022-11-15T11:13:51;22.35;;;15.43;;
29378;SDS011;16362;47.202;15.258;2022-11-15T11:18:55;19.08;;;14.15;;
29378;SDS011;16362;47.202;15.258;2022-11-15T11:24:41;22.92;;;14.68;;
29378;SDS011;16362;47.202;15.258;2022-11-15T11:30:06;23.45;;;14.45;;
29378;SDS011;16362;47.202;15.258;2022-11-15T11:35:20;20.88;;;13.93;;
29378;SDS011;16362;47.202;15.258;2022-11-15T11:37:52;21.10;;;14.20;;
29378;SDS011;16362;47.202;15.258;2022-11-15T11:43:27;19.20;;;13.68;;
29378;SDS011;16362;47.202;15.258;2022-11-15T11:46:10;19.30;;;13.10;;
29378;SDS011;16362;47.202;15.258;2022-11-15T11:48:45;19.20;;;12.82;;
29378;SDS011;16362;47.202;15.258;2022-11-15T11:53:50;21.40;;;14.90;;
29378;SDS011;16362;47.202;15.258;2022-11-15T11:56:28;22.75;;;14.85;;
29378;SDS011;16362;47.202;15.258;2022-11-15T11:59:00;22.67;;;15.40;;
29378;SDS011;16362;47.202;15.258;2022-11-15T12:01:34;21.77;;;15.30;;
29378;SDS011;16362;47.202;15.258;2022-11-15T12:15:18;30.20;;;19.95;;
29378;SDS011;16362;47.202;15.258;2022-11-15T12:17:48;31.88;;;19.42;;
29378;SDS011;16362;47.202;15.258;2022-11-15T12:20:19;26.83;;;15.20;;
29378;SDS011;16362;47.202;15.258;2022-11-15T12:23:50;20.73;;;13.98;;
29378;SDS011;16362;47.202;15.258;2022-11-15T12:28:42;32.50;;;18.90;;
29378;SDS011;16362;47.202;15.258;2022-11-15T12:31:40;40.03;;;21.02;;
29378;SDS011;16362;47.202;15.258;2022-11-15T12:36:49;36.78;;;21.17;;
29378;SDS011;16362;47.202;15.258;2022-11-15T12:39:17;35.22;;;21.67;;
29378;SDS011;16362;47.202;15.258;2022-11-15T12:42:35;43.03;;;24.45;;
29378;SDS011;16362;47.202;15.258;2022-11-15T13:02:40;68.55;;;33.78;;
29378;SDS011;16362;47.202;15.258;2022-11-15T13:17:47;65.03;;;33.88;;
29378;SDS011;16362;47.202;15.258;2022-11-15T13:30:36;63.63;;;33.13;;
29378;SDS011;16362;47.202;15.258;2022-11-15T13:33:13;66.63;;;33.75;;
29378;SDS011;16362;47.202;15.258;2022-11-15T13:35:46;68.43;;;33.75;;
29378;SDS011;16362;47.202;15.258;2022-11-15T13:38:18;69.05;;;33.83;;
29378;SDS011;16362;47.202;15.258;2022-11-15T13:40:55;70.15;;;34.13;;
29378;SDS011;16362;47.202;15.258;2022-11-15T13:48:45;72.60;;;35.08;;
29378;SDS011;16362;47.202;15.258;2022-11-15T13:53:50;74.43;;;34.30;;
29378;SDS011;16362;47.202;15.258;2022-11-15T13:56:21;71.85;;;33.70;;
29378;SDS011;16362;47.202;15.258;2022-11-15T13:58:48;79.10;;;35.22;;
29378;SDS011;16362;47.202;15.258;2022-11-15T14:01:17;80.43;;;36.67;;
29378;SDS011;16362;47.202;15.258;2022-11-15T14:03:54;76.72;;;35.20;;
29378;SDS011;16362;47.202;15.258;2022-11-15T14:06:24;79.82;;;34.63;;
29378;SDS011;16362;47.202;15.258;2022-11-15T14:09:00;72.18;;;34.55;;
29378;SDS011;16362;47.202;15.258;2022-11-15T14:11:30;75.32;;;35.40;;
29378;SDS011;16362;47.202;15.258;2022-11-15T14:16:45;88.22;;;39.35;;
29378;SDS011;16362;47.202;15.258;2022-11-15T14:24:38;84.85;;;35.22;;
29378;SDS011;16362;47.202;15.258;2022-11-15T14:29:47;79.50;;;34.58;;
29378;SDS011;16362;47.202;15.258;2022-11-15T14:32:21;70.65;;;34.38;;
29378;SDS011;16362;47.202;15.258;2022-11-15T14:34:54;77.05;;;37.00;;
29378;SDS011;16362;47.202;15.258;2022-11-15T14:37:24;80.65;;;37.05;;
29378;SDS011;16362;47.202;15.258;2022-11-15T14:39:59;85.38;;;37.22;;
29378;SDS011;16362;47.202;15.258;2022-11-15T14:42:26;81.82;;;37.90;;
29378;SDS011;16362;47.202;15.258;2022-11-15T14:44:52;84.40;;;37.60;;
29378;SDS011;16362;47.202;15.258;2022-11-15T14:47:19;81.25;;;35.75;;
29378;SDS011;16362;47.202;15.258;2022-11-15T14:49:46;76.18;;;36.05;;
29378;SDS011;16362;47.202;15.258;2022-11-15T14:52:21;75.90;;;36.70;;
29378;SDS011;16362;47.202;15.258;2022-11-15T14:54:58;78.50;;;36.07;;
29378;SDS011;16362;47.202;15.258;2022-11-15T14:57:25;74.70;;;36.33;;
29378;SDS011;16362;47.202;15.258;2022-11-15T14:59:52;79.97;;;36.22;;
29378;SDS011;16362;47.202;15.258;2022-11-15T15:02:24;77.55;;;35.53;;
29378;SDS011;16362;47.202;15.258;2022-11-15T15:04:53;78.65;;;35.35;;
29378;SDS011;16362;47.202;15.258;2022-11-15T15:07:19;80.07;;;35.00;;
29378;SDS011;16362;47.202;15.258;2022-11-15T15:09:47;71.30;;;33.58;;
29378;SDS011;16362;47.202;15.258;2022-11-15T15:12:20;75.38;;;34.28;;
29378;SDS011;16362;47.202;15.258;2022-11-15T15:17:16;78.35;;;32.75;;
29378;SDS011;16362;47.202;15.258;2022-11-15T15:19:43;60.65;;;32.08;;
29378;SDS011;16362;47.202;15.258;2022-11-15T15:22:17;69.65;;;33.08;;
29378;SDS011;16362;47.202;15.258;2022-11-15T15:24:45;72.57;;;33.78;;
29378;SDS011;16362;47.202;15.258;2022-11-15T15:27:12;70.07;;;32.28;;
29378;SDS011;16362;47.202;15.258;2022-11-15T15:33:30;67.95;;;30.95;;
29378;SDS011;16362;47.202;15.258;2022-11-15T15:35:57;71.70;;;33.22;;
29378;SDS011;16362;47.202;15.258;2022-11-15T15:38:24;66.90;;;32.20;;
29378;SDS011;16362;47.202;15.258;2022-11-15T15:40:51;61.70;;;30.55;;
29378;SDS011;16362;47.202;15.258;2022-11-15T15:43:17;65.55;;;31.08;;
29378;SDS011;16362;47.202;15.258;2022-11-15T15:45:44;68.95;;;31.17;;
29378;SDS011;16362;47.202;15.258;2022-11-15T15:48:12;65.45;;;30.27;;
29378;SDS011;16362;47.202;15.258;2022-11-15T15:50:40;60.97;;;30.77;;
29378;SDS011;16362;47.202;15.258;2022-11-15T15:53:09;54.63;;;28.02;;
29378;SDS011;16362;47.202;15.258;2022-11-15T15:55:37;58.95;;;29.30;;
29378;SDS011;16362;47.202;15.258;2022-11-15T15:58:04;62.13;;;29.60;;
29378;SDS011;16362;47.202;15.258;2022-11-15T16:00:31;63.92;;;30.77;;
29378;SDS011;16362;47.202;15.258;2022-11-15T16:03:00;57.58;;;29.90;;
29378;SDS011;16362;47.202;15.258;2022-11-15T16:05:27;66.63;;;31.52;;
29378;SDS011;16362;47.202;15.258;2022-11-15T16:07:54;62.63;;;30.30;;
29378;SDS011;16362;47.202;15.258;2022-11-15T16:10:24;69.15;;;31.70;;
29378;SDS011;16362;47.202;15.258;2022-11-15T16:12:56;67.88;;;29.90;;
29378;SDS011;16362;47.202;15.258;2022-11-15T16:15:25;62.95;;;29.50;;
29378;SDS011;16362;47.202;15.258;2022-11-15T16:17:53;65.63;;;29.77;;
29378;SDS011;16362;47.202;15.258;2022-11-15T16:20:24;63.40;;;30.42;;
29378;SDS011;16362;47.202;15.258;2022-11-15T16:22:52;62.78;;;30.15;;
29378;SDS011;16362;47.202;15.258;2022-11-15T16:25:19;62.90;;;29.70;;
29378;SDS011;16362;47.202;15.258;2022-11-15T16:27:46;61.65;;;29.98;;
29378;SDS011;16362;47.202;15.258;2022-11-15T16:30:16;66.00;;;30.88;;
29378;SDS011;16362;47.202;15.258;2022-11-15T16:32:45;64.30;;;29.17;;
29378;SDS011;16362;47.202;15.258;2022-11-15T16:35:12;64.82;;;30.02;;
29378;SDS011;16362;47.202;15.258;2022-11-15T16:37:41;68.55;;;30.02;;
29378;SDS011;16362;47.202;15.258;2022-11-15T16:40:29;66.72;;;29.92;;
29378;SDS011;16362;47.202;15.258;2022-11-15T16:42:58;70.68;;;30.95;;
29378;SDS011;16362;47.202;15.258;2022-11-15T16:45:27;64.22;;;29.02;;
29378;SDS011;16362;47.202;15.258;2022-11-15T16:47:55;69.50;;;30.70;;
29378;SDS011;16362;47.202;15.258;2022-11-15T16:50:25;57.42;;;28.63;;
29378;SDS011;16362;47.202;15.258;2022-11-15T16:52:55;59.97;;;29.75;;